Klosterneuburg, Austria
Current Conditions -  °F | °C
As of 12:20 PM on Friday 31 Oct 2014 (Local Time) from LOXT Reporting Station
Broken Clouds Broken Clouds  
Wind Chill: 50°   Ceiling: 3200
Heat Index: 50°   Visibility: 5mi
Dew Point: 43°   Wind: 0mph
Humidity: 76%   Direction: NA
Pressure: 30.36"   Gusts: NA
Location:  48.31°N, 16.31°E
Report Text: LOXT 311020Z 00000KT 8000 BKN032SC 10/06 Q1028 NOSIG RMK OVC
Loading
Personal Weather Stations






























Interactive Weather Map
Tropical Storm Tracking
New forecast layout! Learn more

10-Day Weather Forecast

Advertisements
Track Severe Weather on mobile